Shibin el-Kom, Egypt
Current Conditions -  °F | °C
As of 3:30 PM on Sunday 23 Nov 2014 (Local Time) from HECA Reporting Station
Scattered Clouds Scattered Clouds  
Wind Chill: 68°   Ceiling: Unl
Heat Index: 68°   Visibility: 6mi
Dew Point: 45°   Wind: 10mph
Humidity: 43%   Direction: 270°W
Pressure: 30"   Gusts: NA
Location:  30.59°N, 30.9°E
Report Text: HECA 231330Z 27009KT 9999 SCT025 SCT070 20/07 Q1016 NOSIG
Loading
Personal Weather Stations






























Interactive Weather Map New forecast layout! Learn more

10-Day Weather Forecast

Advertisements
Track Severe Weather on mobile